sensor_id;sensor_type;location;lat;lon;timestamp;P1;durP1;ratioP1;P2;durP2;ratioP2
25581;SDS011;13462;50.764;4.332;2022-09-29T00:00:55;21.27;;;11.82;;
25581;SDS011;13462;50.764;4.332;2022-09-29T00:17:46;17.20;;;11.30;;
25581;SDS011;13462;50.764;4.332;2022-09-29T00:20:32;16.33;;;11.43;;
25581;SDS011;13462;50.764;4.332;2022-09-29T00:23:01;15.82;;;10.82;;
25581;SDS011;13462;50.764;4.332;2022-09-29T00:25:28;18.10;;;11.63;;
25581;SDS011;13462;50.764;4.332;2022-09-29T00:27:56;21.20;;;11.38;;
25581;SDS011;13462;50.764;4.332;2022-09-29T00:30:33;18.25;;;11.32;;
25581;SDS011;13462;50.764;4.332;2022-09-29T00:33:02;21.38;;;11.07;;
25581;SDS011;13462;50.764;4.332;2022-09-29T00:38:05;14.77;;;10.75;;
25581;SDS011;13462;50.764;4.332;2022-09-29T00:43:13;20.40;;;10.30;;
25581;SDS011;13462;50.764;4.332;2022-09-29T01:05:54;16.35;;;10.25;;
25581;SDS011;13462;50.764;4.332;2022-09-29T01:08:29;16.13;;;8.85;;
25581;SDS011;13462;50.764;4.332;2022-09-29T01:15:03;17.77;;;9.10;;
25581;SDS011;13462;50.764;4.332;2022-09-29T01:41:48;16.15;;;8.35;;
25581;SDS011;13462;50.764;4.332;2022-09-29T01:44:28;11.93;;;7.40;;
25581;SDS011;13462;50.764;4.332;2022-09-29T01:49:57;11.93;;;7.72;;
25581;SDS011;13462;50.764;4.332;2022-09-29T01:52:31;14.30;;;8.50;;
25581;SDS011;13462;50.764;4.332;2022-09-29T01:55:07;14.80;;;8.25;;
25581;SDS011;13462;50.764;4.332;2022-09-29T01:57:45;11.85;;;7.60;;
25581;SDS011;13462;50.764;4.332;2022-09-29T02:03:36;15.90;;;8.77;;
25581;SDS011;13462;50.764;4.332;2022-09-29T02:10:40;16.02;;;10.18;;
25581;SDS011;13462;50.764;4.332;2022-09-29T02:13:06;17.48;;;9.18;;
25581;SDS011;13462;50.764;4.332;2022-09-29T02:16:13;13.02;;;8.63;;
25581;SDS011;13462;50.764;4.332;2022-09-29T02:18:50;14.52;;;8.57;;
25581;SDS011;13462;50.764;4.332;2022-09-29T02:21:23;14.98;;;8.80;;
25581;SDS011;13462;50.764;4.332;2022-09-29T02:23:57;14.65;;;8.60;;
25581;SDS011;13462;50.764;4.332;2022-09-29T02:26:23;13.52;;;8.85;;
25581;SDS011;13462;50.764;4.332;2022-09-29T02:29:15;18.05;;;8.98;;
25581;SDS011;13462;50.764;4.332;2022-09-29T02:34:37;16.40;;;9.00;;
25581;SDS011;13462;50.764;4.332;2022-09-29T02:44:15;20.30;;;11.32;;
25581;SDS011;13462;50.764;4.332;2022-09-29T03:04:16;19.45;;;11.02;;
25581;SDS011;13462;50.764;4.332;2022-09-29T03:06:42;20.75;;;10.93;;
25581;SDS011;13462;50.764;4.332;2022-09-29T03:09:18;15.10;;;10.77;;
25581;SDS011;13462;50.764;4.332;2022-09-29T03:11:53;21.85;;;11.10;;
25581;SDS011;13462;50.764;4.332;2022-09-29T03:14:22;19.48;;;11.02;;
25581;SDS011;13462;50.764;4.332;2022-09-29T03:16:50;21.52;;;11.10;;
25581;SDS011;13462;50.764;4.332;2022-09-29T03:19:36;16.20;;;10.65;;
25581;SDS011;13462;50.764;4.332;2022-09-29T03:32:17;18.77;;;10.75;;
25581;SDS011;13462;50.764;4.332;2022-09-29T03:34:43;21.15;;;11.35;;
25581;SDS011;13462;50.764;4.332;2022-09-29T03:37:29;19.48;;;11.85;;
25581;SDS011;13462;50.764;4.332;2022-09-29T03:43:27;17.38;;;10.55;;
25581;SDS011;13462;50.764;4.332;2022-09-29T03:46:00;18.48;;;10.77;;
25581;SDS011;13462;50.764;4.332;2022-09-29T03:48:29;17.48;;;10.07;;
25581;SDS011;13462;50.764;4.332;2022-09-29T03:50:58;14.50;;;9.77;;
25581;SDS011;13462;50.764;4.332;2022-09-29T03:53:30;15.55;;;9.02;;
25581;SDS011;13462;50.764;4.332;2022-09-29T03:56:09;17.33;;;10.50;;
25581;SDS011;13462;50.764;4.332;2022-09-29T03:58:38;17.65;;;9.70;;
25581;SDS011;13462;50.764;4.332;2022-09-29T04:01:07;18.30;;;10.50;;
25581;SDS011;13462;50.764;4.332;2022-09-29T04:03:35;18.63;;;10.95;;
25581;SDS011;13462;50.764;4.332;2022-09-29T04:06:01;20.92;;;10.43;;
25581;SDS011;13462;50.764;4.332;2022-09-29T04:08:27;16.52;;;10.40;;
25581;SDS011;13462;50.764;4.332;2022-09-29T04:10:53;20.58;;;11.77;;
25581;SDS011;13462;50.764;4.332;2022-09-29T04:13:22;18.55;;;11.15;;
25581;SDS011;13462;50.764;4.332;2022-09-29T04:15:48;18.55;;;10.57;;
25581;SDS011;13462;50.764;4.332;2022-09-29T04:18:14;18.40;;;10.40;;
25581;SDS011;13462;50.764;4.332;2022-09-29T04:24:45;16.40;;;10.40;;
25581;SDS011;13462;50.764;4.332;2022-09-29T04:27:39;20.35;;;10.93;;
25581;SDS011;13462;50.764;4.332;2022-09-29T04:30:06;20.48;;;11.23;;
25581;SDS011;13462;50.764;4.332;2022-09-29T04:33:28;20.08;;;11.30;;
25581;SDS011;13462;50.764;4.332;2022-09-29T04:38:05;21.73;;;10.77;;
25581;SDS011;13462;50.764;4.332;2022-09-29T04:40:33;23.60;;;12.00;;
25581;SDS011;13462;50.764;4.332;2022-09-29T04:43:01;20.00;;;12.32;;
25581;SDS011;13462;50.764;4.332;2022-09-29T04:45:28;17.05;;;11.70;;
25581;SDS011;13462;50.764;4.332;2022-09-29T04:47:54;18.58;;;11.05;;
25581;SDS011;13462;50.764;4.332;2022-09-29T04:50:24;19.42;;;11.20;;
25581;SDS011;13462;50.764;4.332;2022-09-29T04:53:28;18.25;;;11.00;;
25581;SDS011;13462;50.764;4.332;2022-09-29T04:56:14;21.85;;;13.32;;
25581;SDS011;13462;50.764;4.332;2022-09-29T05:01:47;19.88;;;12.15;;
25581;SDS011;13462;50.764;4.332;2022-09-29T05:04:16;16.13;;;11.15;;
25581;SDS011;13462;50.764;4.332;2022-09-29T05:06:44;19.00;;;12.20;;
25581;SDS011;13462;50.764;4.332;2022-09-29T05:23:00;18.65;;;12.65;;
25581;SDS011;13462;50.764;4.332;2022-09-29T05:32:53;24.65;;;13.55;;
25581;SDS011;13462;50.764;4.332;2022-09-29T05:41:52;24.33;;;13.77;;
25581;SDS011;13462;50.764;4.332;2022-09-29T05:44:36;29.13;;;13.77;;
25581;SDS011;13462;50.764;4.332;2022-09-29T05:47:13;19.13;;;12.85;;
25581;SDS011;13462;50.764;4.332;2022-09-29T05:54:02;24.38;;;13.50;;
25581;SDS011;13462;50.764;4.332;2022-09-29T06:14:25;18.92;;;11.48;;
25581;SDS011;13462;50.764;4.332;2022-09-29T06:31:18;22.73;;;13.77;;
25581;SDS011;13462;50.764;4.332;2022-09-29T06:37:08;27.63;;;12.95;;
25581;SDS011;13462;50.764;4.332;2022-09-29T06:46:31;25.73;;;14.05;;
25581;SDS011;13462;50.764;4.332;2022-09-29T06:56:45;24.65;;;14.25;;
25581;SDS011;13462;50.764;4.332;2022-09-29T06:59:22;24.67;;;12.15;;
25581;SDS011;13462;50.764;4.332;2022-09-29T07:01:50;21.15;;;13.40;;
25581;SDS011;13462;50.764;4.332;2022-09-29T07:04:16;20.17;;;12.45;;
25581;SDS011;13462;50.764;4.332;2022-09-29T07:06:43;26.52;;;13.48;;
25581;SDS011;13462;50.764;4.332;2022-09-29T07:09:10;24.95;;;12.25;;
25581;SDS011;13462;50.764;4.332;2022-09-29T07:11:57;19.33;;;11.38;;
25581;SDS011;13462;50.764;4.332;2022-09-29T07:14:51;20.08;;;11.77;;
25581;SDS011;13462;50.764;4.332;2022-09-29T07:17:20;23.38;;;12.60;;
25581;SDS011;13462;50.764;4.332;2022-09-29T07:46:52;13.18;;;7.72;;
25581;SDS011;13462;50.764;4.332;2022-09-29T07:51:54;13.20;;;8.13;;
25581;SDS011;13462;50.764;4.332;2022-09-29T07:54:23;10.40;;;7.13;;
25581;SDS011;13462;50.764;4.332;2022-09-29T07:56:56;11.65;;;6.60;;
25581;SDS011;13462;50.764;4.332;2022-09-29T07:59:46;14.75;;;7.20;;
25581;SDS011;13462;50.764;4.332;2022-09-29T08:02:13;14.90;;;7.18;;
25581;SDS011;13462;50.764;4.332;2022-09-29T08:04:48;12.65;;;7.13;;
25581;SDS011;13462;50.764;4.332;2022-09-29T08:07:21;11.95;;;6.72;;
25581;SDS011;13462;50.764;4.332;2022-09-29T08:09:46;12.23;;;6.32;;
25581;SDS011;13462;50.764;4.332;2022-09-29T08:12:23;14.40;;;6.45;;
25581;SDS011;13462;50.764;4.332;2022-09-29T08:22:22;11.32;;;6.68;;
25581;SDS011;13462;50.764;4.332;2022-09-29T08:24:48;9.38;;;6.50;;
25581;SDS011;13462;50.764;4.332;2022-09-29T08:34:10;8.98;;;6.38;;
25581;SDS011;13462;50.764;4.332;2022-09-29T08:36:37;7.65;;;5.82;;
25581;SDS011;13462;50.764;4.332;2022-09-29T08:39:03;8.57;;;6.07;;
25581;SDS011;13462;50.764;4.332;2022-09-29T08:45:54;9.90;;;5.72;;
25581;SDS011;13462;50.764;4.332;2022-09-29T08:48:25;5.75;;;5.13;;
25581;SDS011;13462;50.764;4.332;2022-09-29T08:56:26;9.52;;;5.38;;
25581;SDS011;13462;50.764;4.332;2022-09-29T09:17:02;9.60;;;5.15;;
25581;SDS011;13462;50.764;4.332;2022-09-29T09:26:14;3.55;;;3.22;;
25581;SDS011;13462;50.764;4.332;2022-09-29T09:28:52;5.38;;;3.67;;
25581;SDS011;13462;50.764;4.332;2022-09-29T09:31:32;9.15;;;4.50;;
25581;SDS011;13462;50.764;4.332;2022-09-29T09:44:23;7.47;;;3.85;;
25581;SDS011;13462;50.764;4.332;2022-09-29T09:50:45;4.15;;;3.20;;
25581;SDS011;13462;50.764;4.332;2022-09-29T09:53:21;3.80;;;2.88;;
25581;SDS011;13462;50.764;4.332;2022-09-29T10:01:46;3.78;;;3.20;;
25581;SDS011;13462;50.764;4.332;2022-09-29T10:14:20;4.60;;;3.20;;
25581;SDS011;13462;50.764;4.332;2022-09-29T10:19:53;3.50;;;3.20;;
25581;SDS011;13462;50.764;4.332;2022-09-29T10:22:29;4.60;;;2.80;;
25581;SDS011;13462;50.764;4.332;2022-09-29T10:27:44;5.03;;;3.13;;
25581;SDS011;13462;50.764;4.332;2022-09-29T10:37:16;4.63;;;3.40;;
25581;SDS011;13462;50.764;4.332;2022-09-29T10:39:48;4.22;;;3.05;;
25581;SDS011;13462;50.764;4.332;2022-09-29T10:48:24;6.88;;;3.67;;
25581;SDS011;13462;50.764;4.332;2022-09-29T10:57:44;3.75;;;3.17;;
25581;SDS011;13462;50.764;4.332;2022-09-29T11:00:33;2.60;;;2.22;;
25581;SDS011;13462;50.764;4.332;2022-09-29T11:06:42;5.75;;;2.85;;
25581;SDS011;13462;50.764;4.332;2022-09-29T11:18:25;3.30;;;2.42;;
25581;SDS011;13462;50.764;4.332;2022-09-29T11:24:28;5.45;;;3.80;;
25581;SDS011;13462;50.764;4.332;2022-09-29T11:31:11;5.13;;;2.83;;
25581;SDS011;13462;50.764;4.332;2022-09-29T11:39:39;5.72;;;3.25;;
25581;SDS011;13462;50.764;4.332;2022-09-29T11:42:33;5.78;;;3.00;;
25581;SDS011;13462;50.764;4.332;2022-09-29T11:45:21;3.88;;;2.42;;
25581;SDS011;13462;50.764;4.332;2022-09-29T11:53:56;4.90;;;3.25;;
25581;SDS011;13462;50.764;4.332;2022-09-29T11:59:25;3.00;;;2.75;;
25581;SDS011;13462;50.764;4.332;2022-09-29T12:02:28;5.75;;;2.95;;
25581;SDS011;13462;50.764;4.332;2022-09-29T12:05:21;5.25;;;2.60;;
25581;SDS011;13462;50.764;4.332;2022-09-29T12:16:56;5.20;;;2.90;;
25581;SDS011;13462;50.764;4.332;2022-09-29T12:19:26;3.25;;;2.35;;
25581;SDS011;13462;50.764;4.332;2022-09-29T12:21:56;4.03;;;2.83;;
25581;SDS011;13462;50.764;4.332;2022-09-29T12:24:47;3.85;;;3.28;;
25581;SDS011;13462;50.764;4.332;2022-09-29T12:31:39;4.25;;;2.75;;
25581;SDS011;13462;50.764;4.332;2022-09-29T12:37:10;5.05;;;2.40;;
25581;SDS011;13462;50.764;4.332;2022-09-29T12:40:02;4.80;;;2.30;;
25581;SDS011;13462;50.764;4.332;2022-09-29T12:43:01;5.65;;;2.83;;
25581;SDS011;13462;50.764;4.332;2022-09-29T12:46:05;4.55;;;3.05;;
25581;SDS011;13462;50.764;4.332;2022-09-29T13:37:10;3.47;;;1.33;;
25581;SDS011;13462;50.764;4.332;2022-09-29T13:39:43;2.88;;;1.70;;
25581;SDS011;13462;50.764;4.332;2022-09-29T13:42:27;4.85;;;1.83;;
25581;SDS011;13462;50.764;4.332;2022-09-29T13:57:49;7.57;;;2.13;;
25581;SDS011;13462;50.764;4.332;2022-09-29T14:00:19;7.40;;;1.65;;
25581;SDS011;13462;50.764;4.332;2022-09-29T14:08:53;4.20;;;1.75;;
25581;SDS011;13462;50.764;4.332;2022-09-29T14:20:56;3.00;;;1.25;;
25581;SDS011;13462;50.764;4.332;2022-09-29T14:23:46;1.65;;;0.98;;
25581;SDS011;13462;50.764;4.332;2022-09-29T14:29:17;2.10;;;1.00;;
25581;SDS011;13462;50.764;4.332;2022-09-29T14:31:49;1.83;;;1.23;;
25581;SDS011;13462;50.764;4.332;2022-09-29T14:34:19;1.85;;;1.20;;
25581;SDS011;13462;50.764;4.332;2022-09-29T14:36:48;3.42;;;1.75;;
25581;SDS011;13462;50.764;4.332;2022-09-29T14:39:17;1.63;;;1.52;;
25581;SDS011;13462;50.764;4.332;2022-09-29T14:41:55;5.05;;;1.90;;
25581;SDS011;13462;50.764;4.332;2022-09-29T14:44:22;2.42;;;1.40;;
25581;SDS011;13462;50.764;4.332;2022-09-29T14:56:51;4.05;;;1.88;;
25581;SDS011;13462;50.764;4.332;2022-09-29T14:59:35;2.38;;;1.50;;
25581;SDS011;13462;50.764;4.332;2022-09-29T15:02:21;4.07;;;1.85;;
25581;SDS011;13462;50.764;4.332;2022-09-29T15:04:51;3.28;;;1.50;;
25581;SDS011;13462;50.764;4.332;2022-09-29T15:07:19;2.50;;;1.60;;
25581;SDS011;13462;50.764;4.332;2022-09-29T15:25:40;3.92;;;1.70;;
25581;SDS011;13462;50.764;4.332;2022-09-29T15:28:19;4.72;;;1.90;;
25581;SDS011;13462;50.764;4.332;2022-09-29T15:30:52;3.78;;;2.90;;
25581;SDS011;13462;50.764;4.332;2022-09-29T15:33:27;7.88;;;5.80;;
25581;SDS011;13462;50.764;4.332;2022-09-29T15:36:04;6.57;;;5.18;;
25581;SDS011;13462;50.764;4.332;2022-09-29T15:38:50;10.80;;;3.60;;
25581;SDS011;13462;50.764;4.332;2022-09-29T15:41:18;6.93;;;3.42;;
25581;SDS011;13462;50.764;4.332;2022-09-29T15:50:14;3.95;;;2.55;;
25581;SDS011;13462;50.764;4.332;2022-09-29T15:53:25;2.70;;;2.50;;
25581;SDS011;13462;50.764;4.332;2022-09-29T15:55:55;4.38;;;2.95;;
25581;SDS011;13462;50.764;4.332;2022-09-29T15:58:33;3.22;;;2.65;;
25581;SDS011;13462;50.764;4.332;2022-09-29T16:01:29;3.67;;;2.88;;
25581;SDS011;13462;50.764;4.332;2022-09-29T16:04:06;3.47;;;2.58;;
25581;SDS011;13462;50.764;4.332;2022-09-29T16:06:33;4.43;;;2.55;;
25581;SDS011;13462;50.764;4.332;2022-09-29T16:09:03;3.97;;;2.70;;
25581;SDS011;13462;50.764;4.332;2022-09-29T16:11:33;3.28;;;2.85;;
25581;SDS011;13462;50.764;4.332;2022-09-29T16:14:00;4.22;;;2.83;;
25581;SDS011;13462;50.764;4.332;2022-09-29T16:16:30;6.20;;;3.15;;
25581;SDS011;13462;50.764;4.332;2022-09-29T16:19:14;3.72;;;2.90;;
25581;SDS011;13462;50.764;4.332;2022-09-29T16:21:54;4.20;;;3.53;;
25581;SDS011;13462;50.764;4.332;2022-09-29T16:24:32;4.15;;;3.33;;
25581;SDS011;13462;50.764;4.332;2022-09-29T16:27:03;5.60;;;3.50;;
25581;SDS011;13462;50.764;4.332;2022-09-29T16:38:51;4.72;;;3.78;;
25581;SDS011;13462;50.764;4.332;2022-09-29T16:41:30;4.88;;;4.32;;
25581;SDS011;13462;50.764;4.332;2022-09-29T16:46:59;6.32;;;5.80;;
25581;SDS011;13462;50.764;4.332;2022-09-29T16:49:34;7.70;;;4.93;;
25581;SDS011;13462;50.764;4.332;2022-09-29T16:52:10;26.75;;;19.30;;
25581;SDS011;13462;50.764;4.332;2022-09-29T16:54:42;23.45;;;16.00;;
25581;SDS011;13462;50.764;4.332;2022-09-29T16:57:14;30.77;;;21.20;;
25581;SDS011;13462;50.764;4.332;2022-09-29T16:59:45;19.52;;;12.32;;
25581;SDS011;13462;50.764;4.332;2022-09-29T17:02:17;17.08;;;11.82;;
25581;SDS011;13462;50.764;4.332;2022-09-29T17:04:43;8.55;;;6.78;;
25581;SDS011;13462;50.764;4.332;2022-09-29T17:07:13;10.65;;;9.23;;
25581;SDS011;13462;50.764;4.332;2022-09-29T17:09:42;15.13;;;10.88;;
25581;SDS011;13462;50.764;4.332;2022-09-29T17:12:17;9.77;;;7.90;;
25581;SDS011;13462;50.764;4.332;2022-09-29T17:14:43;11.80;;;8.27;;
25581;SDS011;13462;50.764;4.332;2022-09-29T17:17:24;12.02;;;8.00;;
25581;SDS011;13462;50.764;4.332;2022-09-29T17:19:52;7.77;;;6.97;;
25581;SDS011;13462;50.764;4.332;2022-09-29T17:22:30;9.40;;;8.07;;
25581;SDS011;13462;50.764;4.332;2022-09-29T17:24:58;14.18;;;12.25;;
25581;SDS011;13462;50.764;4.332;2022-09-29T17:27:25;14.95;;;13.65;;
25581;SDS011;13462;50.764;4.332;2022-09-29T17:30:12;13.65;;;8.73;;
25581;SDS011;13462;50.764;4.332;2022-09-29T17:32:42;9.20;;;8.23;;
25581;SDS011;13462;50.764;4.332;2022-09-29T17:35:32;8.30;;;5.40;;
25581;SDS011;13462;50.764;4.332;2022-09-29T17:38:01;10.90;;;6.43;;
25581;SDS011;13462;50.764;4.332;2022-09-29T17:46:38;10.18;;;7.05;;
25581;SDS011;13462;50.764;4.332;2022-09-29T17:49:10;9.02;;;8.15;;
25581;SDS011;13462;50.764;4.332;2022-09-29T17:51:37;11.65;;;8.85;;
25581;SDS011;13462;50.764;4.332;2022-09-29T17:54:06;13.13;;;8.65;;
25581;SDS011;13462;50.764;4.332;2022-09-29T17:56:33;8.27;;;7.47;;
25581;SDS011;13462;50.764;4.332;2022-09-29T17:59:22;8.23;;;7.32;;
25581;SDS011;13462;50.764;4.332;2022-09-29T18:05:41;7.60;;;6.20;;
25581;SDS011;13462;50.764;4.332;2022-09-29T18:08:10;11.45;;;8.35;;
25581;SDS011;13462;50.764;4.332;2022-09-29T18:11:00;9.02;;;7.03;;
25581;SDS011;13462;50.764;4.332;2022-09-29T18:13:29;15.00;;;9.52;;
25581;SDS011;13462;50.764;4.332;2022-09-29T18:16:01;9.75;;;8.02;;
25581;SDS011;13462;50.764;4.332;2022-09-29T18:18:27;8.25;;;7.45;;
25581;SDS011;13462;50.764;4.332;2022-09-29T18:23:42;11.60;;;8.60;;
25581;SDS011;13462;50.764;4.332;2022-09-29T18:26:09;11.63;;;8.73;;
25581;SDS011;13462;50.764;4.332;2022-09-29T18:28:36;10.45;;;8.23;;
25581;SDS011;13462;50.764;4.332;2022-09-29T18:31:05;9.73;;;8.23;;
25581;SDS011;13462;50.764;4.332;2022-09-29T18:37:32;10.02;;;8.30;;
25581;SDS011;13462;50.764;4.332;2022-09-29T18:40:07;18.83;;;11.63;;
25581;SDS011;13462;50.764;4.332;2022-09-29T18:42:53;12.40;;;10.55;;
25581;SDS011;13462;50.764;4.332;2022-09-29T18:45:23;16.95;;;10.63;;
25581;SDS011;13462;50.764;4.332;2022-09-29T18:48:03;15.07;;;11.32;;
25581;SDS011;13462;50.764;4.332;2022-09-29T18:50:41;13.18;;;10.45;;
25581;SDS011;13462;50.764;4.332;2022-09-29T18:53:24;13.68;;;10.70;;
25581;SDS011;13462;50.764;4.332;2022-09-29T18:58:41;13.90;;;10.60;;
25581;SDS011;13462;50.764;4.332;2022-09-29T19:01:07;14.75;;;10.45;;
25581;SDS011;13462;50.764;4.332;2022-09-29T19:03:44;12.77;;;9.82;;
25581;SDS011;13462;50.764;4.332;2022-09-29T19:06:19;15.70;;;12.90;;
25581;SDS011;13462;50.764;4.332;2022-09-29T19:08:45;14.05;;;11.60;;
25581;SDS011;13462;50.764;4.332;2022-09-29T19:13:59;35.20;;;23.90;;
25581;SDS011;13462;50.764;4.332;2022-09-29T19:16:35;29.73;;;21.50;;
25581;SDS011;13462;50.764;4.332;2022-09-29T19:19:01;22.65;;;17.25;;
25581;SDS011;13462;50.764;4.332;2022-09-29T19:21:28;18.75;;;13.63;;
25581;SDS011;13462;50.764;4.332;2022-09-29T19:23:56;23.35;;;16.17;;
25581;SDS011;13462;50.764;4.332;2022-09-29T19:26:28;18.38;;;14.50;;
25581;SDS011;13462;50.764;4.332;2022-09-29T19:31:30;14.55;;;10.95;;
25581;SDS011;13462;50.764;4.332;2022-09-29T19:33:56;22.25;;;11.18;;
25581;SDS011;13462;50.764;4.332;2022-09-29T19:36:24;17.08;;;12.13;;
25581;SDS011;13462;50.764;4.332;2022-09-29T19:39:03;19.73;;;13.57;;
25581;SDS011;13462;50.764;4.332;2022-09-29T19:41:35;33.00;;;18.42;;
25581;SDS011;13462;50.764;4.332;2022-09-29T19:44:11;26.50;;;16.38;;
25581;SDS011;13462;50.764;4.332;2022-09-29T19:46:49;25.70;;;18.58;;
25581;SDS011;13462;50.764;4.332;2022-09-29T19:59:44;25.30;;;18.33;;
25581;SDS011;13462;50.764;4.332;2022-09-29T20:02:47;18.73;;;14.25;;
25581;SDS011;13462;50.764;4.332;2022-09-29T20:05:18;21.65;;;15.68;;
25581;SDS011;13462;50.764;4.332;2022-09-29T20:07:47;16.70;;;13.02;;
25581;SDS011;13462;50.764;4.332;2022-09-29T20:10:21;17.80;;;11.75;;
25581;SDS011;13462;50.764;4.332;2022-09-29T20:15:51;147.50;;;77.80;;
25581;SDS011;13462;50.764;4.332;2022-09-29T20:18:18;48.38;;;30.33;;
25581;SDS011;13462;50.764;4.332;2022-09-29T20:20:44;52.00;;;28.95;;
25581;SDS011;13462;50.764;4.332;2022-09-29T20:23:32;22.85;;;16.70;;
25581;SDS011;13462;50.764;4.332;2022-09-29T20:26:08;19.85;;;12.98;;
25581;SDS011;13462;50.764;4.332;2022-09-29T20:28:37;17.13;;;13.00;;
25581;SDS011;13462;50.764;4.332;2022-09-29T20:31:04;11.90;;;10.65;;
25581;SDS011;13462;50.764;4.332;2022-09-29T20:33:33;16.65;;;11.90;;
25581;SDS011;13462;50.764;4.332;2022-09-29T20:36:03;19.63;;;15.18;;
25581;SDS011;13462;50.764;4.332;2022-09-29T20:38:30;32.83;;;20.65;;
25581;SDS011;13462;50.764;4.332;2022-09-29T20:41:01;41.60;;;24.95;;
25581;SDS011;13462;50.764;4.332;2022-09-29T20:43:28;21.20;;;14.68;;
25581;SDS011;13462;50.764;4.332;2022-09-29T20:50:02;15.23;;;12.65;;
25581;SDS011;13462;50.764;4.332;2022-09-29T21:02:47;19.77;;;13.27;;
25581;SDS011;13462;50.764;4.332;2022-09-29T21:05:21;26.65;;;17.73;;
25581;SDS011;13462;50.764;4.332;2022-09-29T21:07:47;38.72;;;24.35;;
25581;SDS011;13462;50.764;4.332;2022-09-29T21:10:34;41.40;;;24.55;;
25581;SDS011;13462;50.764;4.332;2022-09-29T21:13:22;38.25;;;23.52;;
25581;SDS011;13462;50.764;4.332;2022-09-29T21:15:51;42.45;;;28.13;;
25581;SDS011;13462;50.764;4.332;2022-09-29T21:18:33;51.28;;;31.08;;
25581;SDS011;13462;50.764;4.332;2022-09-29T21:23:54;23.70;;;15.35;;
25581;SDS011;13462;50.764;4.332;2022-09-29T21:26:39;21.67;;;15.27;;
25581;SDS011;13462;50.764;4.332;2022-09-29T21:32:04;15.30;;;11.80;;
25581;SDS011;13462;50.764;4.332;2022-09-29T21:37:08;15.65;;;13.55;;
25581;SDS011;13462;50.764;4.332;2022-09-29T21:39:37;14.90;;;11.43;;
25581;SDS011;13462;50.764;4.332;2022-09-29T21:42:02;17.42;;;12.38;;
25581;SDS011;13462;50.764;4.332;2022-09-29T21:50:25;16.92;;;12.27;;
25581;SDS011;13462;50.764;4.332;2022-09-29T21:52:51;19.52;;;11.98;;
25581;SDS011;13462;50.764;4.332;2022-09-29T21:55:17;15.30;;;11.10;;
25581;SDS011;13462;50.764;4.332;2022-09-29T21:57:43;15.77;;;11.85;;
25581;SDS011;13462;50.764;4.332;2022-09-29T22:00:09;15.88;;;11.38;;
25581;SDS011;13462;50.764;4.332;2022-09-29T22:02:35;15.95;;;12.55;;
25581;SDS011;13462;50.764;4.332;2022-09-29T22:07:33;18.83;;;13.15;;
25581;SDS011;13462;50.764;4.332;2022-09-29T22:09:59;20.83;;;14.32;;
25581;SDS011;13462;50.764;4.332;2022-09-29T22:12:35;18.58;;;13.48;;
25581;SDS011;13462;50.764;4.332;2022-09-29T22:15:04;18.15;;;13.48;;
25581;SDS011;13462;50.764;4.332;2022-09-29T22:17:30;21.73;;;14.57;;
25581;SDS011;13462;50.764;4.332;2022-09-29T22:19:57;19.42;;;13.63;;
25581;SDS011;13462;50.764;4.332;2022-09-29T22:22:31;19.05;;;13.50;;
25581;SDS011;13462;50.764;4.332;2022-09-29T22:24:57;18.90;;;13.85;;
25581;SDS011;13462;50.764;4.332;2022-09-29T22:27:22;18.27;;;12.88;;
25581;SDS011;13462;50.764;4.332;2022-09-29T22:32:24;24.45;;;15.98;;
25581;SDS011;13462;50.764;4.332;2022-09-29T22:34:52;22.30;;;14.57;;
25581;SDS011;13462;50.764;4.332;2022-09-29T22:48:01;26.20;;;17.58;;
25581;SDS011;13462;50.764;4.332;2022-09-29T22:50:27;26.83;;;19.00;;
25581;SDS011;13462;50.764;4.332;2022-09-29T22:52:56;27.83;;;18.17;;
25581;SDS011;13462;50.764;4.332;2022-09-29T22:55:32;23.15;;;14.88;;
25581;SDS011;13462;50.764;4.332;2022-09-29T22:58:18;31.63;;;19.17;;
25581;SDS011;13462;50.764;4.332;2022-09-29T23:00:44;28.38;;;20.15;;
25581;SDS011;13462;50.764;4.332;2022-09-29T23:03:10;24.88;;;18.73;;
25581;SDS011;13462;50.764;4.332;2022-09-29T23:05:40;30.80;;;19.20;;
25581;SDS011;13462;50.764;4.332;2022-09-29T23:08:08;30.83;;;20.23;;
25581;SDS011;13462;50.764;4.332;2022-09-29T23:10:36;31.95;;;20.30;;
25581;SDS011;13462;50.764;4.332;2022-09-29T23:13:01;27.42;;;18.83;;
25581;SDS011;13462;50.764;4.332;2022-09-29T23:15:30;25.33;;;18.35;;
25581;SDS011;13462;50.764;4.332;2022-09-29T23:17:56;30.80;;;21.13;;
25581;SDS011;13462;50.764;4.332;2022-09-29T23:20:22;23.67;;;17.13;;
25581;SDS011;13462;50.764;4.332;2022-09-29T23:22:48;28.42;;;19.10;;
25581;SDS011;13462;50.764;4.332;2022-09-29T23:25:13;32.47;;;21.00;;
25581;SDS011;13462;50.764;4.332;2022-09-29T23:27:39;36.22;;;22.50;;
25581;SDS011;13462;50.764;4.332;2022-09-29T23:30:05;27.85;;;19.98;;
25581;SDS011;13462;50.764;4.332;2022-09-29T23:32:31;29.20;;;20.70;;
25581;SDS011;13462;50.764;4.332;2022-09-29T23:34:57;29.15;;;20.17;;
25581;SDS011;13462;50.764;4.332;2022-09-29T23:37:23;28.58;;;20.58;;
25581;SDS011;13462;50.764;4.332;2022-09-29T23:40:09;29.65;;;20.10;;
25581;SDS011;13462;50.764;4.332;2022-09-29T23:42:35;32.20;;;20.92;;
25581;SDS011;13462;50.764;4.332;2022-09-29T23:45:01;32.30;;;20.77;;
25581;SDS011;13462;50.764;4.332;2022-09-29T23:47:27;34.33;;;20.77;;
25581;SDS011;13462;50.764;4.332;2022-09-29T23:49:53;31.90;;;20.33;;
25581;SDS011;13462;50.764;4.332;2022-09-29T23:52:19;31.98;;;19.90;;
25581;SDS011;13462;50.764;4.332;2022-09-29T23:54:46;30.52;;;19.23;;
25581;SDS011;13462;50.764;4.332;2022-09-29T23:57:25;28.05;;;19.10;;
25581;SDS011;13462;50.764;4.332;2022-09-29T23:59:51;33.70;;;19.85;;
